createdAt,value
2023-02-05T00:00:44.424Z,2.01
2023-02-05T00:03:11.079Z,2.15
2023-02-05T00:05:37.749Z,1.98
2023-02-05T00:08:04.482Z,2.00
2023-02-05T00:10:31.103Z,1.77
2023-02-05T00:12:57.660Z,1.56
2023-02-05T00:15:24.276Z,1.14
2023-02-05T00:17:50.885Z,0.95
2023-02-05T00:20:17.723Z,0.56
2023-02-05T00:22:44.291Z,0.60
2023-02-05T00:25:10.918Z,0.54
2023-02-05T00:27:37.480Z,0.57
2023-02-05T00:30:04.289Z,0.65
2023-02-05T00:32:30.866Z,0.72
2023-02-05T00:34:57.480Z,0.38
2023-02-05T00:37:24.065Z,0.54
2023-02-05T00:39:50.675Z,0.28
2023-02-05T00:42:17.279Z,-0.04
2023-02-05T00:44:44.501Z,0.47
2023-02-05T00:47:11.056Z,0.41
2023-02-05T00:49:37.599Z,0.49
2023-02-05T00:52:05.173Z,0.64
2023-02-05T00:54:31.893Z,0.53
2023-02-05T00:56:58.459Z,0.99
2023-02-05T00:59:25.066Z,0.98
2023-02-05T01:01:51.736Z,1.31
2023-02-05T01:04:18.378Z,1.29
2023-02-05T01:06:44.950Z,1.25
2023-02-05T01:09:11.536Z,1.55
2023-02-05T01:11:38.190Z,1.20
2023-02-05T01:14:04.760Z,1.54
2023-02-05T01:16:31.487Z,2.02
2023-02-05T01:18:59.083Z,1.95
2023-02-05T01:21:25.734Z,-0.73
2023-02-05T01:23:52.698Z,2.14
2023-02-05T01:26:19.277Z,2.14
2023-02-05T01:28:46.047Z,1.73
2023-02-05T01:31:12.746Z,1.68
2023-02-05T01:33:39.436Z,1.27
2023-02-05T01:36:06.381Z,0.83
2023-02-05T01:38:32.962Z,1.60
2023-02-05T01:41:00.085Z,1.65
2023-02-05T01:43:27.275Z,1.72
2023-02-05T01:46:24.225Z,1.81
2023-02-05T01:48:54.780Z,1.81
2023-02-05T01:51:23.592Z,1.66
2023-02-05T01:53:50.587Z,1.58
2023-02-05T01:56:30.137Z,1.77
2023-02-05T01:59:09.536Z,0.71
2023-02-05T02:01:37.691Z,0.39
2023-02-05T02:04:05.111Z,1.01
2023-02-05T02:06:33.851Z,1.11
2023-02-05T02:09:01.599Z,0.75
2023-02-05T02:11:33.129Z,0.85
2023-02-05T02:14:02.836Z,0.47
2023-02-05T02:16:30.542Z,0.82
2023-02-05T02:18:57.447Z,0.51
2023-02-05T02:21:45.289Z,0.64
2023-02-05T02:24:11.820Z,0.41
2023-02-05T02:26:44.334Z,0.23
2023-02-05T02:29:20.168Z,0.25
2023-02-05T02:32:12.818Z,0.24
2023-02-05T02:34:47.204Z,0.12
2023-02-05T02:37:25.450Z,0.12
2023-02-05T02:40:06.850Z,-0.14
2023-02-05T02:42:46.345Z,0.23
2023-02-05T02:45:14.687Z,0.28
2023-02-05T02:47:52.053Z,0.41
2023-02-05T02:50:32.938Z,0.33
2023-02-05T02:53:08.583Z,0.39
2023-02-05T02:55:38.223Z,-0.18
2023-02-05T02:58:08.777Z,0.23
2023-02-05T03:00:39.716Z,0.20
2023-02-05T03:03:09.770Z,0.01
2023-02-05T03:05:37.797Z,0.02
2023-02-05T03:08:12.030Z,-0.06
2023-02-05T03:10:58.919Z,0.07
2023-02-05T03:13:25.694Z,-0.25
2023-02-05T03:15:52.435Z,-0.10
2023-02-05T03:18:19.993Z,-0.67
2023-02-05T03:20:56.617Z,-0.11
2023-02-05T03:23:24.218Z,-0.69
2023-02-05T03:25:50.768Z,-0.24
2023-02-05T03:28:17.792Z,-0.36
2023-02-05T03:30:59.962Z,-0.54
2023-02-05T03:33:47.097Z,-0.66
2023-02-05T03:36:52.158Z,-0.71
2023-02-05T03:39:30.921Z,-0.63
2023-02-05T03:42:10.255Z,-0.57
2023-02-05T03:45:11.667Z,-0.64
2023-02-05T03:48:13.095Z,-0.72
2023-02-05T03:51:12.069Z,-0.78
2023-02-05T03:54:07.970Z,-1.36
2023-02-05T03:56:50.489Z,-1.10
2023-02-05T03:59:19.130Z,-0.75
2023-02-05T04:01:47.090Z,-0.73
2023-02-05T04:04:14.207Z,-0.84
2023-02-05T04:06:40.874Z,-0.91
2023-02-05T04:09:08.008Z,-0.60
2023-02-05T04:11:34.639Z,-0.56
2023-02-05T04:14:01.224Z,-0.83
2023-02-05T04:16:27.884Z,-0.72
2023-02-05T04:18:54.525Z,-0.60
2023-02-05T04:21:21.274Z,-1.46
2023-02-05T04:23:47.878Z,-1.12
2023-02-05T04:26:14.532Z,-1.16
2023-02-05T04:28:41.148Z,-1.21
2023-02-05T04:31:08.917Z,-1.00
2023-02-05T04:33:35.732Z,-1.19
2023-02-05T04:36:02.614Z,-1.34
2023-02-05T04:38:29.224Z,-1.20
2023-02-05T04:40:55.924Z,-1.44
2023-02-05T04:43:22.577Z,-1.67
2023-02-05T04:45:49.171Z,-1.42
2023-02-05T04:48:15.761Z,-2.08
2023-02-05T04:50:42.311Z,-1.52
2023-02-05T04:53:09.076Z,-1.49
2023-02-05T04:55:36.091Z,-1.60
2023-02-05T04:58:02.954Z,-1.88
2023-02-05T05:00:29.525Z,-1.63
2023-02-05T05:02:57.092Z,-1.64
2023-02-05T05:05:23.876Z,-1.60
2023-02-05T05:07:50.458Z,-1.81
2023-02-05T05:10:17.188Z,-2.45
2023-02-05T05:12:43.740Z,-1.78
2023-02-05T05:15:10.504Z,-2.15
2023-02-05T05:17:37.113Z,-1.62
2023-02-05T05:20:04.483Z,-1.98
2023-02-05T05:22:31.156Z,-1.93
2023-02-05T05:24:57.793Z,-2.02
2023-02-05T05:27:24.984Z,-2.06
2023-02-05T05:29:51.525Z,-2.55
2023-02-05T05:32:18.214Z,-2.25
2023-02-05T05:34:44.855Z,-2.27
2023-02-05T05:37:11.479Z,-2.24
2023-02-05T05:39:56.572Z,-2.33
2023-02-05T05:42:41.795Z,-2.19
2023-02-05T05:45:08.709Z,-2.20
2023-02-05T05:47:35.495Z,-2.16
2023-02-05T05:50:02.178Z,-2.07
2023-02-05T05:52:30.882Z,-2.09
2023-02-05T05:54:58.718Z,-2.18
2023-02-05T05:57:26.009Z,-2.81
2023-02-05T05:59:52.643Z,-2.05
2023-02-05T06:02:19.247Z,-2.68
2023-02-05T06:04:46.170Z,-2.84
2023-02-05T06:07:12.833Z,-2.33
2023-02-05T06:09:39.444Z,-2.59
2023-02-05T06:12:06.369Z,-2.68
2023-02-05T06:14:33.132Z,-2.24
2023-02-05T06:16:59.712Z,-2.84
2023-02-05T06:19:26.292Z,-2.16
2023-02-05T06:21:52.888Z,-2.11
2023-02-05T06:24:19.448Z,-2.12
2023-02-05T06:26:46.028Z,-1.89
2023-02-05T06:29:12.626Z,-1.81
2023-02-05T06:31:39.352Z,-2.02
2023-02-05T06:34:05.989Z,-2.31
2023-02-05T06:36:32.630Z,-1.90
2023-02-05T06:38:59.279Z,-2.13
2023-02-05T06:41:25.870Z,-2.75
2023-02-05T06:43:52.561Z,-1.92
2023-02-05T06:46:19.304Z,-1.99
2023-02-05T06:48:45.922Z,-2.00
2023-02-05T06:51:13.608Z,-1.85
2023-02-05T06:53:40.374Z,-2.47
2023-02-05T06:56:07.285Z,-2.20
2023-02-05T06:58:33.948Z,-1.81
2023-02-05T07:01:01.578Z,-1.60
2023-02-05T07:03:28.147Z,-1.82
2023-02-05T07:05:54.807Z,-1.83
2023-02-05T07:08:21.394Z,-1.88
2023-02-05T07:10:47.958Z,-1.62
2023-02-05T07:13:14.555Z,-1.79
2023-02-05T07:15:41.201Z,-1.47
2023-02-05T07:18:10.813Z,-1.42
2023-02-05T07:20:37.363Z,-1.69
2023-02-05T07:23:05.578Z,-1.86
2023-02-05T07:25:37.873Z,-2.02
2023-02-05T07:28:06.149Z,-1.49
2023-02-05T07:30:33.134Z,-1.37
2023-02-05T07:33:00.952Z,-1.28
2023-02-05T07:35:27.564Z,-1.88
2023-02-05T07:37:54.136Z,-1.33
2023-02-05T07:40:20.789Z,-1.74
2023-02-05T07:42:47.389Z,-1.05
2023-02-05T07:45:14.057Z,-1.19
2023-02-05T07:47:40.781Z,-1.41
2023-02-05T07:50:07.890Z,-1.49
2023-02-05T07:52:34.640Z,-1.46
2023-02-05T07:55:01.230Z,-1.37
2023-02-05T07:57:28.902Z,-1.14
2023-02-05T07:59:55.465Z,-1.88
2023-02-05T08:02:22.114Z,-0.99
2023-02-05T08:04:49.956Z,-1.11
2023-02-05T08:07:16.557Z,-0.77
2023-02-05T08:09:43.154Z,-0.84
2023-02-05T08:12:09.821Z,-0.74
2023-02-05T08:14:39.572Z,-0.98
2023-02-05T08:17:06.656Z,-0.81
2023-02-05T08:19:36.500Z,-1.16
2023-02-05T08:22:03.153Z,-0.94
2023-02-05T08:24:31.798Z,-0.64
2023-02-05T08:26:58.702Z,-0.66
2023-02-05T08:29:25.357Z,-0.58
2023-02-05T08:31:51.989Z,-1.05
2023-02-05T08:34:20.751Z,-0.56
2023-02-05T08:36:47.545Z,-0.53
2023-02-05T08:39:14.578Z,-0.88
2023-02-05T08:41:41.296Z,-1.21
2023-02-05T08:44:07.835Z,-1.10
2023-02-05T08:46:48.894Z,-1.41
2023-02-05T08:49:17.082Z,-1.70
2023-02-05T08:51:43.855Z,-0.89
2023-02-05T08:54:13.300Z,-1.09
2023-02-05T08:56:41.130Z,-0.91
2023-02-05T08:59:09.141Z,-1.22
2023-02-05T09:01:37.490Z,-1.19
2023-02-05T09:04:05.088Z,-0.85
2023-02-05T09:06:31.728Z,-1.14
2023-02-05T09:08:58.446Z,-0.45
2023-02-05T09:11:26.845Z,-0.49
2023-02-05T09:13:53.937Z,-0.61
2023-02-05T09:16:20.584Z,-0.68
2023-02-05T09:18:47.214Z,-0.46
2023-02-05T09:21:13.942Z,-0.71
2023-02-05T09:23:40.492Z,-0.72
2023-02-05T09:26:09.151Z,-1.05
2023-02-05T09:28:36.341Z,-0.71
2023-02-05T09:31:08.769Z,-0.22
2023-02-05T09:33:35.571Z,0.10
2023-02-05T09:36:17.124Z,-0.23
2023-02-05T09:38:45.704Z,-0.09
2023-02-05T09:41:15.196Z,-0.39
2023-02-05T09:43:50.860Z,-0.02
2023-02-05T09:46:23.861Z,-0.26
2023-02-05T09:48:58.966Z,0.02
2023-02-05T09:51:43.372Z,-0.39
2023-02-05T09:54:42.044Z,-0.19
2023-02-05T09:57:14.545Z,-0.38
2023-02-05T09:59:47.390Z,-0.78
2023-02-05T10:02:26.439Z,-0.44
2023-02-05T10:04:54.848Z,-0.13
2023-02-05T10:07:59.136Z,-0.44
2023-02-05T10:10:28.833Z,-0.52
2023-02-05T10:13:14.057Z,-0.24
2023-02-05T10:16:23.245Z,0.08
2023-02-05T10:19:11.550Z,0.16
2023-02-05T10:22:11.948Z,-0.98
2023-02-05T10:24:51.032Z,-0.08
2023-02-05T10:27:24.346Z,0.18
2023-02-05T10:30:06.650Z,0.11
2023-02-05T10:32:52.740Z,0.12
2023-02-05T10:35:44.378Z,-0.14
2023-02-05T10:38:21.600Z,0.35
2023-02-05T10:40:51.186Z,0.56
2023-02-05T10:43:36.407Z,0.52
2023-02-05T10:46:05.189Z,0.40
2023-02-05T10:49:06.886Z,0.38
2023-02-05T10:51:41.415Z,0.45
2023-02-05T10:54:19.300Z,0.11
2023-02-05T10:56:46.166Z,-0.14
2023-02-05T10:59:20.969Z,-0.16
2023-02-05T11:01:48.738Z,0.20
2023-02-05T11:04:41.468Z,0.25
2023-02-05T11:07:22.627Z,-0.38
2023-02-05T11:09:49.227Z,0.25
2023-02-05T11:12:32.628Z,0.20
2023-02-05T11:15:00.540Z,0.25
2023-02-05T11:17:36.416Z,-0.20
2023-02-05T11:20:18.550Z,0.07
2023-02-05T11:22:48.283Z,-0.21
2023-02-05T11:25:18.522Z,0.23
2023-02-05T11:27:56.177Z,0.28
2023-02-05T11:30:47.965Z,-0.82
2023-02-05T11:33:21.294Z,-0.31
2023-02-05T11:35:55.443Z,-0.50
2023-02-05T11:38:29.975Z,-0.72
2023-02-05T11:41:00.383Z,-0.36
2023-02-05T11:43:31.628Z,-0.31
2023-02-05T11:46:00.253Z,-0.19
2023-02-05T11:48:39.366Z,-0.42
2023-02-05T11:51:09.218Z,-0.12
2023-02-05T11:53:37.484Z,-0.11
2023-02-05T11:56:11.592Z,-0.01
2023-02-05T11:58:38.744Z,-0.10
2023-02-05T12:01:21.907Z,-0.12
2023-02-05T12:03:59.050Z,-0.11
2023-02-05T12:06:32.235Z,-0.20
2023-02-05T12:08:58.858Z,0.16
2023-02-05T12:12:06.692Z,0.32
2023-02-05T12:14:42.824Z,0.10
2023-02-05T12:17:39.799Z,-0.12
2023-02-05T12:20:19.554Z,-0.09
2023-02-05T12:23:19.131Z,-0.05
2023-02-05T12:25:59.438Z,-0.21
2023-02-05T12:28:47.720Z,-0.09
2023-02-05T12:31:23.347Z,-0.09
2023-02-05T12:34:14.451Z,0.31
2023-02-05T12:36:52.930Z,0.16
2023-02-05T12:39:36.251Z,-0.15
2023-02-05T12:42:20.300Z,0.12
2023-02-05T12:44:55.715Z,0.33
2023-02-05T12:47:52.860Z,0.02
2023-02-05T12:50:41.141Z,0.31
2023-02-05T12:53:33.766Z,0.36
2023-02-05T12:56:31.443Z,0.24
2023-02-05T12:59:07.039Z,0.21
2023-02-05T13:02:04.441Z,-0.10
2023-02-05T13:04:44.816Z,-0.43
2023-02-05T13:07:36.171Z,-0.60
2023-02-05T13:10:06.835Z,-0.04
2023-02-05T13:12:37.949Z,-0.12
2023-02-05T13:15:17.744Z,-0.32
2023-02-05T13:17:58.191Z,-0.99
2023-02-05T13:20:56.332Z,-0.47
2023-02-05T13:23:42.124Z,-0.47
2023-02-05T13:26:25.235Z,-0.51
2023-02-05T13:29:08.298Z,-0.32
2023-02-05T13:31:43.526Z,-0.34
2023-02-05T13:34:15.356Z,-0.75
2023-02-05T13:37:21.167Z,-0.30
2023-02-05T13:40:08.876Z,-0.20
2023-02-05T13:42:56.763Z,-0.21
2023-02-05T13:45:51.492Z,-0.53
2023-02-05T13:48:55.458Z,-0.33
2023-02-05T13:51:30.119Z,-0.31
2023-02-05T13:54:15.497Z,-0.44
2023-02-05T13:56:51.883Z,-0.85
2023-02-05T13:59:36.915Z,-0.45
2023-02-05T14:02:04.031Z,-0.47
2023-02-05T14:04:36.464Z,-0.28
2023-02-05T14:07:05.833Z,-0.59
2023-02-05T14:09:37.545Z,-0.60
2023-02-05T14:12:22.429Z,-0.91
2023-02-05T14:15:16.814Z,-0.97
2023-02-05T14:17:43.296Z,-0.83
2023-02-05T14:20:25.317Z,-0.68
2023-02-05T14:22:57.949Z,-0.69
2023-02-05T14:25:39.661Z,-0.97
2023-02-05T14:28:09.164Z,-1.18
2023-02-05T14:31:00.360Z,-0.88
2023-02-05T14:33:36.032Z,-0.80
2023-02-05T14:36:18.355Z,-1.06
2023-02-05T14:38:51.720Z,-1.19
2023-02-05T14:41:22.121Z,-1.26
2023-02-05T14:44:02.179Z,-1.17
2023-02-05T14:46:31.769Z,-1.29
2023-02-05T14:49:01.341Z,-1.27
2023-02-05T14:51:39.888Z,-1.43
2023-02-05T14:54:19.394Z,-1.62
2023-02-05T14:56:52.378Z,-1.57
2023-02-05T14:59:29.188Z,-1.68
2023-02-05T15:01:57.778Z,-1.61
2023-02-05T15:04:52.729Z,-1.73
2023-02-05T15:07:27.549Z,-1.83
2023-02-05T15:10:04.014Z,-1.89
2023-02-05T15:12:42.736Z,-1.92
2023-02-05T15:15:35.737Z,-1.75
2023-02-05T15:18:04.852Z,-1.95
2023-02-05T15:20:36.002Z,-1.84
2023-02-05T15:23:31.689Z,-1.77
2023-02-05T15:26:02.837Z,-1.75
2023-02-05T15:28:31.618Z,-1.86
2023-02-05T15:31:27.322Z,-1.77
2023-02-05T15:34:03.014Z,-1.71
2023-02-05T15:36:39.732Z,-1.95
2023-02-05T15:39:29.220Z,-2.10
2023-02-05T15:41:59.127Z,-2.14
2023-02-05T15:44:32.508Z,-2.29
2023-02-05T15:47:07.653Z,-2.37
2023-02-05T15:50:00.931Z,-3.09
2023-02-05T15:52:31.089Z,-2.43
2023-02-05T15:55:01.398Z,-2.53
2023-02-05T15:57:31.206Z,-2.60
2023-02-05T16:00:00.478Z,-2.75
2023-02-05T16:02:29.668Z,-2.54
2023-02-05T16:05:00.220Z,-2.46
2023-02-05T16:07:36.240Z,-2.91
2023-02-05T16:10:18.680Z,-2.86
2023-02-05T16:13:15.569Z,-2.46
2023-02-05T16:16:06.866Z,-5.93
2023-02-05T16:18:36.485Z,-2.33
2023-02-05T16:21:24.842Z,-2.93
2023-02-05T16:23:58.114Z,-2.63
2023-02-05T16:26:32.865Z,-2.49
2023-02-05T16:29:16.916Z,-2.38
2023-02-05T16:31:58.754Z,-3.18
2023-02-05T16:34:26.061Z,-2.60
2023-02-05T16:36:53.153Z,-2.59
2023-02-05T16:39:28.936Z,-2.87
2023-02-05T16:42:03.583Z,-2.40
2023-02-05T16:44:39.676Z,-3.00
2023-02-05T16:47:12.340Z,-2.54
2023-02-05T16:49:39.468Z,-2.46
2023-02-05T16:52:25.410Z,-2.43
2023-02-05T16:54:52.039Z,-2.43
2023-02-05T16:57:51.614Z,-2.57
2023-02-05T17:00:20.542Z,-2.52
2023-02-05T17:02:47.501Z,-2.85
2023-02-05T17:05:30.895Z,-2.53
2023-02-05T17:08:00.850Z,-2.63
2023-02-05T17:10:28.989Z,-2.95
2023-02-05T17:12:59.051Z,-2.86
2023-02-05T17:15:37.509Z,-2.71
2023-02-05T17:18:36.738Z,-2.71
2023-02-05T17:21:33.536Z,-2.73
2023-02-05T17:24:02.992Z,-2.91
2023-02-05T17:26:32.567Z,-2.76
2023-02-05T17:29:05.538Z,-3.27
2023-02-05T17:31:39.413Z,-2.67
2023-02-05T17:34:06.664Z,-2.65
2023-02-05T17:36:33.390Z,-2.63
2023-02-05T17:39:00.059Z,-2.95
2023-02-05T17:41:50.734Z,-2.62
2023-02-05T17:44:17.658Z,-2.57
2023-02-05T17:46:44.885Z,-2.74
2023-02-05T17:49:11.717Z,-2.81
2023-02-05T17:51:47.670Z,-2.80
2023-02-05T17:54:17.193Z,-2.77
2023-02-05T17:56:45.033Z,-2.69
2023-02-05T17:59:17.555Z,-2.54
2023-02-05T18:01:45.388Z,-2.78
2023-02-05T18:04:12.690Z,-2.61
2023-02-05T18:06:40.471Z,-2.75
2023-02-05T18:09:07.143Z,-2.59
2023-02-05T18:11:33.870Z,-2.56
2023-02-05T18:14:00.525Z,-2.59
2023-02-05T18:16:28.056Z,-2.87
2023-02-05T18:18:54.695Z,-3.06
2023-02-05T18:21:21.980Z,-2.63
2023-02-05T18:23:52.874Z,-2.63
2023-02-05T18:26:20.604Z,-2.63
2023-02-05T18:28:47.228Z,-2.60
2023-02-05T18:31:14.891Z,-2.65
2023-02-05T18:33:42.315Z,-3.47
2023-02-05T18:36:11.637Z,-2.80
2023-02-05T18:38:39.240Z,-2.75
2023-02-05T18:41:10.177Z,-2.65
2023-02-05T18:43:37.196Z,-2.71
2023-02-05T18:46:16.368Z,-2.66
2023-02-05T18:48:49.324Z,-2.60
2023-02-05T18:51:18.703Z,-2.62
2023-02-05T18:53:47.106Z,-2.73
2023-02-05T18:56:15.288Z,-2.73
2023-02-05T18:58:42.942Z,-3.18
2023-02-05T19:01:17.105Z,-2.78
2023-02-05T19:03:44.299Z,-2.79
2023-02-05T19:06:14.279Z,-2.74
2023-02-05T19:08:41.512Z,-3.32
2023-02-05T19:11:28.055Z,-2.74
2023-02-05T19:14:05.044Z,-2.81
2023-02-05T19:16:33.681Z,-2.83
2023-02-05T19:19:01.640Z,-2.98
2023-02-05T19:21:29.468Z,-3.71
2023-02-05T19:23:58.157Z,-2.76
2023-02-05T19:26:27.769Z,-2.87
2023-02-05T19:28:57.018Z,-2.74
2023-02-05T19:31:25.439Z,-2.73
2023-02-05T19:33:52.294Z,-3.18
2023-02-05T19:36:20.176Z,-2.55
2023-02-05T19:38:46.971Z,-3.35
2023-02-05T19:41:20.179Z,-2.59
2023-02-05T19:43:57.843Z,-2.49
2023-02-05T19:46:27.236Z,-3.05
2023-02-05T19:48:55.466Z,-2.87
2023-02-05T19:51:22.336Z,-2.56
2023-02-05T19:53:49.129Z,-2.61
2023-02-05T19:56:22.756Z,-2.63
2023-02-05T19:58:51.890Z,-2.69
2023-02-05T20:01:24.384Z,-2.75
2023-02-05T20:03:53.648Z,-3.00
2023-02-05T20:06:21.672Z,-2.77
2023-02-05T20:08:48.370Z,-2.62
2023-02-05T20:11:15.789Z,-2.72
2023-02-05T20:13:42.788Z,-2.85
2023-02-05T20:16:13.209Z,-2.92
2023-02-05T20:18:41.487Z,-2.83
2023-02-05T20:21:14.265Z,-2.95
2023-02-05T20:23:41.343Z,-3.26
2023-02-05T20:26:09.160Z,-2.72
2023-02-05T20:28:58.760Z,-2.82
2023-02-05T20:31:33.228Z,-2.95
2023-02-05T20:34:05.078Z,-3.13
2023-02-05T20:36:33.721Z,-2.97
2023-02-05T20:39:02.068Z,-3.63
2023-02-05T20:41:28.698Z,-2.96
2023-02-05T20:43:57.409Z,-3.09
2023-02-05T20:46:24.847Z,-3.17
2023-02-05T20:48:51.853Z,-3.22
2023-02-05T20:51:20.522Z,-3.28
2023-02-05T20:53:47.749Z,-3.28
2023-02-05T20:56:17.312Z,-3.38
2023-02-05T20:58:44.252Z,-3.33
2023-02-05T21:01:13.948Z,-3.27
2023-02-05T21:03:44.620Z,-3.25
2023-02-05T21:06:11.868Z,-3.68
2023-02-05T21:08:39.932Z,-4.35
2023-02-05T21:11:06.859Z,-3.33
2023-02-05T21:13:34.245Z,-3.32
2023-02-05T21:16:01.552Z,-3.46
2023-02-05T21:18:29.609Z,-3.49
2023-02-05T21:21:06.253Z,-3.44
2023-02-05T21:23:33.139Z,-3.50
2023-02-05T21:25:59.847Z,-3.65
2023-02-05T21:28:26.943Z,-3.57
2023-02-05T21:31:03.671Z,-4.01
2023-02-05T21:33:30.385Z,-3.53
2023-02-05T21:35:57.286Z,-3.53
2023-02-05T21:38:23.985Z,-3.53
2023-02-05T21:40:51.625Z,-3.47
2023-02-05T21:43:18.235Z,-3.55
2023-02-05T21:45:44.966Z,-3.66
2023-02-05T21:48:11.616Z,-3.60
2023-02-05T21:50:39.735Z,-3.50
2023-02-05T21:53:06.593Z,-4.22
2023-02-05T21:55:33.915Z,-3.51
2023-02-05T21:58:00.577Z,-4.50
2023-02-05T22:00:27.128Z,-3.53
2023-02-05T22:02:53.649Z,-3.51
2023-02-05T22:05:20.459Z,-3.55
2023-02-05T22:07:47.041Z,-3.35
2023-02-05T22:10:13.646Z,-3.41
2023-02-05T22:12:40.211Z,-3.70
2023-02-05T22:15:07.060Z,-3.25
2023-02-05T22:17:33.737Z,-3.42
2023-02-05T22:20:00.324Z,-3.39
2023-02-05T22:22:27.066Z,-3.52
2023-02-05T22:24:53.651Z,-3.14
2023-02-05T22:27:20.380Z,-3.09
2023-02-05T22:29:49.509Z,-3.50
2023-02-05T22:32:16.048Z,-3.15
2023-02-05T22:34:43.671Z,-3.08
2023-02-05T22:37:10.281Z,-3.21
2023-02-05T22:39:36.930Z,-3.09
2023-02-05T22:42:04.769Z,-3.75
2023-02-05T22:44:31.373Z,-3.00
2023-02-05T22:46:58.044Z,-2.92
2023-02-05T22:49:24.635Z,-2.94
2023-02-05T22:51:52.647Z,-3.31
2023-02-05T22:54:19.240Z,-3.33
2023-02-05T22:56:45.904Z,-3.18
2023-02-05T22:59:12.881Z,-3.23
2023-02-05T23:01:39.951Z,-3.12
2023-02-05T23:04:08.955Z,-3.78
2023-02-05T23:06:38.378Z,-3.24
2023-02-05T23:09:14.479Z,-3.12
2023-02-05T23:11:41.807Z,-3.02
2023-02-05T23:14:09.783Z,-3.02
2023-02-05T23:16:41.555Z,-2.84
2023-02-05T23:19:11.536Z,-2.96
2023-02-05T23:21:39.565Z,-3.45
2023-02-05T23:24:07.382Z,-2.97
2023-02-05T23:26:39.797Z,-3.39
2023-02-05T23:29:06.803Z,-3.32
2023-02-05T23:31:33.650Z,-3.75
2023-02-05T23:34:00.751Z,-3.59
2023-02-05T23:36:27.331Z,-3.51
2023-02-05T23:38:53.924Z,-3.87
2023-02-05T23:41:35.651Z,-3.68
2023-02-05T23:44:12.772Z,-3.83
2023-02-05T23:46:41.666Z,-3.93
2023-02-05T23:49:09.145Z,-3.95
2023-02-05T23:51:36.320Z,-3.77
2023-02-05T23:54:03.543Z,-3.80
2023-02-05T23:56:30.120Z,-3.89
2023-02-05T23:58:56.961Z,-3.96
